Time;durP1;ratioP1;P1;durP2;ratioP2;P2;SDS_P1;SDS_P2;PMS_P1;PMS_P2;Temp;Humidity;BMP_temperature;BMP_pressure;BME280_temperature;BME280_humidity;BME280_pressure;Samples;Min_cycle;Max_cycle;Signal;HPM_P1;HPM_P2
2023/07/11 00:03:54;;;;;;;1.00;0.93;;;;;;;18.44;54.20;100162.25;10425577;28;20045;-58
2023/07/11 00:08:56;;;;;;;1.10;1.00;;;;;;;18.22;54.46;100151.88;10427047;28;20057;-56
2023/07/11 00:13:59;;;;;;;3.08;1.38;;;;;;;17.89;54.67;100157.44;10424768;28;21102;-57
2023/07/11 00:19:01;;;;;;;1.85;1.30;;;;;;;17.76;55.09;100160.28;10425373;28;20348;-58
2023/07/11 00:24:05;;;;;;;5.78;1.25;;;;;;;17.83;55.45;100149.03;10425921;28;20504;-58
2023/07/11 00:29:19;;;;;;;1.25;1.00;;;;;;;17.78;55.86;100145.97;10425356;28;20099;-57
2023/07/11 00:34:21;;;;;;;2.78;1.10;;;;;;;17.51;55.51;100143.03;10425429;28;20064;-58
2023/07/11 00:39:27;;;;;;;1.90;1.10;;;;;;;17.61;55.78;100137.78;10423932;28;20041;-58
2023/07/11 00:45:10;;;;;;;1.63;0.90;;;;;;;17.69;56.62;100133.53;10440618;28;20131;-58
2023/07/11 00:50:12;;;;;;;2.90;1.30;;;;;;;17.64;55.89;100132.25;10424419;28;20044;-58
2023/07/11 00:55:15;;;;;;;1.52;1.20;;;;;;;17.73;55.60;100145.50;10425874;28;20150;-57
2023/07/11 01:00:17;;;;;;;1.25;1.10;;;;;;;17.74;55.82;100139.28;10423115;28;20937;-58
2023/07/11 01:05:20;;;;;;;0.93;0.80;;;;;;;17.64;55.95;100138.38;10432882;28;20138;-56
2023/07/11 01:10:23;;;;;;;1.23;1.10;;;;;;;17.60;55.81;100136.97;10431982;28;20651;-57
2023/07/11 01:15:25;;;;;;;1.70;1.25;;;;;;;17.44;55.85;100135.75;10434767;28;20040;-58
2023/07/11 01:20:27;;;;;;;1.98;1.30;;;;;;;17.40;56.22;100145.75;10430802;28;20080;-58
2023/07/11 01:25:30;;;;;;;2.83;1.08;;;;;;;17.40;56.48;100140.47;10416581;28;20076;-57
2023/07/11 01:30:32;;;;;;;4.45;1.10;;;;;;;17.38;56.61;100131.84;10431320;28;20072;-57
2023/07/11 01:35:34;;;;;;;3.35;1.17;;;;;;;17.39;56.32;100138.78;10429230;28;20052;-58
2023/07/11 01:40:36;;;;;;;8.40;1.50;;;;;;;17.39;56.40;100124.72;10433651;28;20044;-57
2023/07/11 01:45:38;;;;;;;2.05;1.10;;;;;;;17.33;56.29;100123.44;10445174;28;21004;-57
2023/07/11 01:50:40;;;;;;;2.05;1.02;;;;;;;17.25;56.64;100114.44;10432732;28;20128;-57
2023/07/11 01:55:42;;;;;;;1.40;1.30;;;;;;;17.21;56.55;100105.94;10430253;28;20454;-57
2023/07/11 02:00:44;;;;;;;3.45;1.20;;;;;;;17.11;56.76;100115.63;10447459;28;20136;-58
2023/07/11 02:05:47;;;;;;;1.88;1.10;;;;;;;16.92;56.89;100112.81;10437210;28;20308;-58
2023/07/11 02:10:50;;;;;;;1.90;1.00;;;;;;;16.89;57.28;100113.09;10405363;28;20095;-58
2023/07/11 02:15:52;;;;;;;1.38;1.17;;;;;;;16.84;57.48;100109.97;10438871;28;20060;-57
2023/07/11 02:20:55;;;;;;;1.63;1.10;;;;;;;16.79;57.34;100101.59;10435276;28;20047;-58
2023/07/11 02:25:58;;;;;;;1.00;1.00;;;;;;;16.72;57.61;100092.50;10436488;28;20280;-56
2023/07/11 02:31:01;;;;;;;1.88;1.17;;;;;;;16.70;57.46;100097.91;10452154;28;20053;-57
2023/07/11 02:36:03;;;;;;;1.52;1.20;;;;;;;16.67;57.71;100097.34;10432218;28;20045;-57
2023/07/11 02:41:05;;;;;;;1.65;1.42;;;;;;;16.63;57.72;100091.44;10436414;28;20095;-57
2023/07/11 02:46:08;;;;;;;2.13;1.27;;;;;;;16.56;57.77;100085.00;10437077;28;20057;-57
2023/07/11 02:51:11;;;;;;;3.33;1.23;;;;;;;16.54;57.61;100086.09;10432988;28;20099;-58
2023/07/11 02:56:15;;;;;;;1.50;1.17;;;;;;;16.30;58.32;100080.97;10436329;28;20033;-58
2023/07/11 03:01:18;;;;;;;1.73;1.20;;;;;;;16.01;58.26;100080.69;10433860;28;20145;-57
2023/07/11 03:06:20;;;;;;;2.30;0.93;;;;;;;16.09;58.73;100075.63;10429109;28;20559;-58
2023/07/11 03:11:22;;;;;;;1.33;1.08;;;;;;;16.18;58.56;100069.59;10428338;28;20041;-59
2023/07/11 03:16:24;;;;;;;1.35;0.98;;;;;;;16.24;58.50;100069.09;10427401;28;20045;-57
2023/07/11 03:21:26;;;;;;;1.38;1.17;;;;;;;16.22;58.50;100060.47;10426533;28;20053;-56
2023/07/11 03:26:28;;;;;;;2.10;1.20;;;;;;;16.19;58.61;100055.47;10428314;28;20137;-57
2023/07/11 03:31:30;;;;;;;1.63;1.10;;;;;;;16.18;58.35;100060.88;10427779;28;20508;-58
2023/07/11 03:36:32;;;;;;;1.52;1.13;;;;;;;16.14;58.76;100052.34;10427055;28;20041;-57
2023/07/11 03:41:34;;;;;;;1.13;1.05;;;;;;;16.17;58.45;100051.25;10428273;28;20049;-57
2023/07/11 03:46:36;;;;;;;2.95;1.50;;;;;;;16.22;58.56;100039.34;10427955;28;20041;-58
2023/07/11 03:51:38;;;;;;;1.73;0.90;;;;;;;16.27;58.43;100043.41;10427577;28;20048;-57
2023/07/11 03:56:40;;;;;;;1.52;1.20;;;;;;;16.31;58.47;100039.56;10428175;28;20128;-57
2023/07/11 04:01:42;;;;;;;3.58;1.20;;;;;;;16.46;58.31;100048.91;10427036;28;20076;-58
2023/07/11 04:06:44;;;;;;;1.85;1.20;;;;;;;16.53;57.97;100044.81;10424806;28;20494;-57
2023/07/11 04:11:46;;;;;;;1.90;1.27;;;;;;;16.56;57.87;100034.00;10424687;28;20068;-57
2023/07/11 04:16:48;;;;;;;1.40;1.08;;;;;;;16.68;57.81;100035.63;10425926;28;20049;-56
2023/07/11 04:21:50;;;;;;;1.48;1.05;;;;;;;17.84;56.63;100031.66;10421894;28;20107;-57
2023/07/11 04:26:52;;;;;;;1.27;1.10;;;;;;;19.86;52.93;100019.03;10424959;28;20055;-58
2023/07/11 04:31:54;;;;;;;1.17;1.00;;;;;;;21.75;49.33;100012.09;10423687;28;20071;-57
2023/07/11 04:36:56;;;;;;;3.28;0.90;;;;;;;23.11;46.79;100004.41;10425286;28;20442;-57
2023/07/11 04:41:58;;;;;;;1.73;1.00;;;;;;;24.40;44.39;100006.56;10425650;28;20052;-58
2023/07/11 04:47:00;;;;;;;1.33;1.00;;;;;;;25.65;42.26;100002.22;10425616;28;20053;-58
2023/07/11 04:52:02;;;;;;;1.70;1.40;;;;;;;26.63;40.57;99998.78;10423478;28;20114;-58
2023/07/11 04:57:04;;;;;;;3.10;1.17;;;;;;;26.85;39.70;99996.09;10424935;28;20184;-58
2023/07/11 05:02:06;;;;;;;2.30;1.20;;;;;;;27.62;38.39;99991.44;10424226;28;20049;-58
2023/07/11 05:07:09;;;;;;;1.23;0.90;;;;;;;28.37;36.83;99989.44;10426201;28;20160;-58
2023/07/11 05:12:11;;;;;;;1.35;1.13;;;;;;;29.01;35.60;99985.13;10422737;28;20059;-58
2023/07/11 05:17:13;;;;;;;2.47;1.05;;;;;;;29.28;34.94;99972.44;10425018;28;20052;-58
2023/07/11 05:22:15;;;;;;;2.33;1.10;;;;;;;29.45;34.42;99970.13;10425284;28;20056;-58
2023/07/11 05:27:18;;;;;;;1.20;0.80;;;;;;;29.70;33.89;99971.91;10423361;28;21107;-58
2023/07/11 05:32:20;;;;;;;1.52;0.98;;;;;;;29.20;33.82;99967.28;10424806;28;20053;-58
2023/07/11 05:37:23;;;;;;;1.02;0.90;;;;;;;27.20;35.92;99961.03;10418434;28;20061;-58
2023/07/11 05:42:25;;;;;;;4.53;1.20;;;;;;;25.28;38.17;99968.31;10424252;28;20049;-58
2023/07/11 05:47:27;;;;;;;5.32;1.33;;;;;;;24.33;39.72;99963.66;10426247;28;20155;-58
2023/07/11 05:52:29;;;;;;;2.97;1.00;;;;;;;23.59;41.04;99964.28;10428591;28;20091;-58
2023/07/11 05:57:34;;;;;;;2.05;1.20;;;;;;;23.30;41.65;99961.34;10429818;28;20496;-57
2023/07/11 06:02:37;;;;;;;1.63;1.02;;;;;;;22.97;42.44;99949.94;10432053;28;20065;-57
2023/07/11 06:07:39;;;;;;;1.50;1.13;;;;;;;22.42;43.53;99949.81;10431638;28;20520;-56
2023/07/11 06:12:41;;;;;;;1.95;1.17;;;;;;;22.60;43.49;99942.47;10431070;28;20435;-56
2023/07/11 06:17:43;;;;;;;2.00;1.13;;;;;;;21.80;44.63;99937.06;10431712;28;20484;-56
2023/07/11 06:22:45;;;;;;;1.35;1.10;;;;;;;21.70;45.18;99941.69;10428802;28;20053;-55
2023/07/11 06:27:47;;;;;;;3.50;1.27;;;;;;;21.90;44.71;99943.06;10429969;28;20056;-58
2023/07/11 06:32:49;;;;;;;2.20;1.20;;;;;;;21.98;44.71;99944.91;10432320;28;20048;-58
2023/07/11 06:37:51;;;;;;;1.50;1.13;;;;;;;22.01;44.29;99940.09;10430274;28;20041;-58
2023/07/11 06:42:53;;;;;;;2.45;1.27;;;;;;;22.14;44.42;99929.81;10429174;28;20051;-57
2023/07/11 06:47:55;;;;;;;5.75;1.75;;;;;;;22.07;44.67;99920.81;10427324;28;20134;-58
2023/07/11 06:52:57;;;;;;;2.92;1.48;;;;;;;22.85;43.74;99910.47;10428913;28;20041;-58
2023/07/11 06:57:59;;;;;;;2.25;1.00;;;;;;;23.35;42.77;99913.66;10428733;28;20045;-56
2023/07/11 07:03:01;;;;;;;3.15;1.30;;;;;;;23.27;43.01;99902.97;10429145;28;20053;-57
2023/07/11 07:08:04;;;;;;;2.33;1.23;;;;;;;23.14;42.91;99897.38;10428471;28;20060;-57
2023/07/11 07:13:17;;;;;;;1.80;1.25;;;;;;;23.58;42.54;99895.84;10420583;28;20378;-56
2023/07/11 07:18:20;;;;;;;1.83;1.40;;;;;;;24.23;41.86;99886.41;10424920;28;20163;-57
2023/07/11 07:23:25;;;;;;;3.03;1.23;;;;;;;25.18;40.86;99884.78;10423325;28;20175;-58
2023/07/11 07:28:29;;;;;;;4.05;1.00;;;;;;;26.44;39.63;99867.16;10426200;28;20037;-57
2023/07/11 07:33:32;;;;;;;2.63;1.20;;;;;;;28.04;37.45;99860.28;10422800;28;20041;-62
2023/07/11 07:38:35;;;;;;;2.40;1.50;;;;;;;28.32;37.00;99849.34;10425012;28;20049;-63
2023/07/11 07:43:39;;;;;;;2.13;1.00;;;;;;;28.67;35.80;99855.31;10421074;28;20055;-62
2023/07/11 07:48:41;;;;;;;3.15;1.40;;;;;;;29.19;34.96;99846.28;10425060;28;20041;-62
2023/07/11 07:53:44;;;;;;;2.42;1.20;;;;;;;29.87;33.80;99832.03;10420434;28;20044;-62
2023/07/11 07:58:47;;;;;;;4.05;1.20;;;;;;;29.91;33.61;99829.72;10423338;28;20048;-62
2023/07/11 08:03:49;;;;;;;2.38;1.25;;;;;;;30.45;32.55;99814.59;10420711;28;20049;-62
2023/07/11 08:08:51;;;;;;;3.42;1.10;;;;;;;31.17;32.25;99800.25;10435672;28;20045;-62
2023/07/11 08:13:53;;;;;;;2.35;1.00;;;;;;;31.18;31.43;99804.63;10413934;28;20094;-62
2023/07/11 08:19:06;;;;;;;5.13;1.33;;;;;;;31.28;30.50;99788.69;10419705;28;20052;-62
2023/07/11 08:24:09;;;;;;;3.67;1.10;;;;;;;31.34;31.02;99789.63;10403517;28;20517;-62
2023/07/11 08:29:13;;;;;;;2.60;1.40;;;;;;;31.73;30.83;99777.44;10424683;28;20461;-62
2023/07/11 08:34:31;;;;;;;4.75;1.40;;;;;;;32.00;30.18;99771.41;10419457;28;20118;-62
2023/07/11 08:39:33;;;;;;;3.33;1.17;;;;;;;32.20;30.13;99761.06;10424292;28;20145;-62
2023/07/11 08:44:49;;;;;;;2.90;1.27;;;;;;;32.20;28.77;99752.09;10420764;28;20571;-62
2023/07/11 08:50:03;;;;;;;6.82;1.33;;;;;;;32.35;28.11;99744.34;10423113;28;20075;-63
2023/07/11 08:55:22;;;;;;;2.53;1.33;;;;;;;32.47;29.10;99738.91;10420622;28;20049;-62
2023/07/11 09:00:26;;;;;;;3.30;1.30;;;;;;;33.14;28.35;99732.75;10423825;28;20076;-62
2023/07/11 09:06:01;;;;;;;2.45;1.13;;;;;;;32.53;27.68;99737.97;10420644;28;20063;-62
2023/07/11 09:11:24;;;;;;;2.38;1.05;;;;;;;32.68;27.91;99730.97;10434395;28;20057;-62
2023/07/11 09:16:45;;;;;;;3.38;1.40;;;;;;;33.31;27.19;99716.53;10421298;28;20057;-63
2023/07/11 09:22:04;;;;;;;3.60;1.30;;;;;;;33.98;26.67;99699.22;10419622;28;20060;-62
2023/07/11 09:27:19;;;;;;;2.35;1.30;;;;;;;33.77;26.67;99684.53;10431532;28;20083;-62
2023/07/11 09:32:30;;;;;;;2.10;1.10;;;;;;;33.64;26.64;99681.31;10425566;28;20409;-62
2023/07/11 09:37:37;;;;;;;2.53;1.13;;;;;;;33.24;26.95;99678.72;10429212;28;20176;-62
2023/07/11 09:42:46;;;;;;;2.08;1.25;;;;;;;33.31;27.24;99665.81;10427123;28;20076;-63
2023/07/11 09:48:11;;;;;;;4.03;1.30;;;;;;;33.68;26.00;99660.75;10429224;28;20075;-62
2023/07/11 09:53:18;;;;;;;2.30;1.23;;;;;;;33.84;26.44;99649.06;10426492;28;20045;-62
2023/07/11 09:58:20;;;;;;;2.13;1.23;;;;;;;34.16;26.74;99646.56;10430579;28;20629;-62
2023/07/11 10:03:27;;;;;;;2.35;1.17;;;;;;;34.10;26.07;99634.81;10424931;28;20064;-62
2023/07/11 10:08:40;;;;;;;2.15;1.15;;;;;;;34.30;25.80;99618.78;10428266;28;20123;-62
2023/07/11 10:13:45;;;;;;;2.08;1.25;;;;;;;34.30;25.60;99620.66;10422120;28;20052;-62
2023/07/11 10:18:47;;;;;;;1.92;1.08;;;;;;;34.41;26.37;99617.00;10424399;28;20346;-62
2023/07/11 10:23:52;;;;;;;2.70;1.40;;;;;;;33.63;25.74;99620.00;10406854;28;20074;-62
2023/07/11 10:29:10;;;;;;;7.65;1.30;;;;;;;33.77;24.70;99602.31;10428715;28;20041;-62
2023/07/11 10:34:52;;;;;;;2.70;1.35;;;;;;;34.13;24.45;99596.31;10423229;28;20077;-62
2023/07/11 10:40:05;;;;;;;4.22;1.50;;;;;;;34.55;24.50;99591.13;10428750;28;20045;-62
2023/07/11 10:45:13;;;;;;;1.98;1.27;;;;;;;34.66;24.00;99584.72;10424383;28;20037;-62
2023/07/11 10:50:41;;;;;;;;;;;;;;;33.99;24.52;99580.63;10426740;28;20116;-62
2023/07/11 10:55:55;;;;;;;2.92;1.42;;;;;;;33.80;24.57;99572.78;10421172;28;20021;-62
2023/07/11 11:01:13;;;;;;;3.55;1.40;;;;;;;33.43;24.83;99563.53;10426136;28;20790;-62
2023/07/11 11:06:51;;;;;;;3.38;1.88;;;;;;;33.29;24.79;99562.22;10426911;28;20637;-63
2023/07/11 11:12:19;;;;;;;2.97;1.55;;;;;;;33.28;25.84;99551.66;10350334;28;20056;-62
2023/07/11 11:17:40;;;;;;;3.83;1.63;;;;;;;33.27;24.87;99545.41;10423731;28;20051;-62
2023/07/11 11:22:55;;;;;;;4.20;1.80;;;;;;;33.24;24.78;99532.34;10424441;28;20059;-62
2023/07/11 11:28:21;;;;;;;2.63;1.70;;;;;;;33.07;24.95;99525.28;10424705;28;20509;-62
2023/07/11 11:33:38;;;;;;;9.00;1.92;;;;;;;33.33;24.23;99521.91;10424313;28;20059;-62
2023/07/11 11:38:41;;;;;;;3.17;1.80;;;;;;;33.26;24.89;99510.41;10425416;28;20104;-62
2023/07/11 11:43:49;;;;;;;3.78;1.50;;;;;;;33.26;24.95;99505.81;10424370;28;20053;-62
2023/07/11 11:48:58;;;;;;;4.78;1.60;;;;;;;33.39;24.33;99510.06;10424044;28;20524;-62
2023/07/11 11:54:17;;;;;;;2.38;1.40;;;;;;;33.39;24.14;99494.59;10402493;28;20118;-62
2023/07/11 11:59:22;;;;;;;2.67;1.60;;;;;;;33.41;24.70;99480.81;10425679;28;20075;-62
2023/07/11 12:04:37;;;;;;;4.18;1.60;;;;;;;33.47;24.54;99474.44;10418591;28;20052;-62
2023/07/11 12:09:47;;;;;;;4.30;1.50;;;;;;;33.62;24.29;99469.19;10424088;28;20438;-62
2023/07/11 12:14:49;;;;;;;6.18;1.88;;;;;;;33.61;24.22;99459.41;10421218;28;20589;-62
2023/07/11 12:20:17;;;;;;;4.38;1.60;;;;;;;33.76;23.83;99463.13;10422098;28;20130;-62
2023/07/11 12:25:20;;;;;;;3.33;1.52;;;;;;;33.74;23.79;99445.47;10408750;28;20200;-62
2023/07/11 12:30:38;;;;;;;4.05;1.58;;;;;;;33.77;22.68;99451.22;10423773;28;20057;-62
2023/07/11 12:35:42;;;;;;;4.22;1.63;;;;;;;33.65;23.64;99434.25;10419601;28;20057;-62
2023/07/11 12:41:06;;;;;;;3.40;1.30;;;;;;;33.97;22.21;99438.97;10420515;28;20094;-62
2023/07/11 12:46:22;;;;;;;4.00;1.70;;;;;;;33.95;22.48;99430.25;10421565;28;20049;-62
2023/07/11 12:51:30;;;;;;;4.63;1.70;;;;;;;33.80;22.92;99404.56;10408392;28;20125;-63
2023/07/11 12:56:31;;;;;;;3.80;1.50;;;;;;;33.73;23.18;99409.41;10414479;28;20545;-62
2023/07/11 13:01:39;;;;;;;3.30;1.60;;;;;;;33.94;23.07;99405.00;10417267;28;20379;-62
2023/07/11 13:06:47;;;;;;;3.33;1.65;;;;;;;34.17;23.02;99388.44;10421731;28;20571;-62
2023/07/11 13:11:52;;;;;;;3.08;1.55;;;;;;;34.26;22.77;99375.22;10416786;28;20095;-62
2023/07/11 13:16:54;;;;;;;3.22;1.70;;;;;;;34.23;22.91;99365.69;10423923;28;20053;-62
2023/07/11 13:22:04;;;;;;;2.92;1.50;;;;;;;34.19;22.98;99370.00;10409813;28;20439;-62
2023/07/11 13:27:17;;;;;;;3.85;1.60;;;;;;;34.46;22.14;99353.69;10422217;28;20175;-62
2023/07/11 13:32:27;;;;;;;2.83;1.40;;;;;;;34.85;22.36;99346.06;10401283;28;20056;-62
2023/07/11 13:37:48;;;;;;;3.72;1.60;;;;;;;34.84;21.85;99337.06;10416541;28;20037;-62
2023/07/11 13:42:51;;;;;;;2.10;1.30;;;;;;;34.87;22.51;99331.16;10410090;28;20496;-62
2023/07/11 13:47:56;;;;;;;3.55;1.90;;;;;;;34.83;22.42;99331.91;10420292;28;20045;-62
2023/07/11 13:53:12;;;;;;;3.30;1.60;;;;;;;34.29;22.84;99320.38;10411672;28;20045;-62
2023/07/11 13:58:15;;;;;;;2.80;1.40;;;;;;;34.26;22.64;99307.34;10418839;28;20041;-63
2023/07/11 14:03:21;;;;;;;3.03;1.60;;;;;;;34.56;22.73;99304.84;10415480;28;20053;-62
2023/07/11 14:08:25;;;;;;;2.80;1.30;;;;;;;34.96;22.63;99305.09;10419194;28;20101;-62
2023/07/11 14:13:27;;;;;;;2.10;1.33;;;;;;;35.02;22.68;99290.44;10421665;28;20529;-63
2023/07/11 14:18:29;;;;;;;2.55;1.50;;;;;;;35.07;22.64;99284.22;10426694;28;20052;-63
2023/07/11 14:23:32;;;;;;;2.95;1.40;;;;;;;34.89;22.28;99280.09;10422866;28;20060;-62
2023/07/11 14:28:35;;;;;;;3.28;1.60;;;;;;;35.12;22.04;99281.53;10427486;28;20098;-62
2023/07/11 14:33:37;;;;;;;3.85;1.77;;;;;;;35.15;22.01;99280.97;10423566;28;20729;-63
2023/07/11 14:38:39;;;;;;;2.60;1.30;;;;;;;35.21;21.42;99274.47;10426366;28;20456;-62
2023/07/11 14:43:41;;;;;;;2.55;1.50;;;;;;;34.83;21.58;99285.72;10423468;28;20059;-63
2023/07/11 14:48:43;;;;;;;2.67;1.50;;;;;;;35.04;21.71;99269.25;10425535;28;20052;-62
2023/07/11 14:53:45;;;;;;;3.00;1.40;;;;;;;35.34;21.44;99276.72;10422972;28;20051;-63
2023/07/11 14:58:49;;;;;;;2.97;1.40;;;;;;;35.52;20.69;99272.69;10424056;28;20139;-63
2023/07/11 15:03:51;;;;;;;2.53;1.38;;;;;;;35.52;20.77;99259.91;10419354;28;20049;-62
2023/07/11 15:08:56;;;;;;;11.00;2.10;;;;;;;35.31;20.35;99256.28;10424238;28;20051;-63
2023/07/11 15:14:01;;;;;;;3.33;1.60;;;;;;;35.37;20.29;99246.28;10424886;28;20061;-62
2023/07/11 15:19:14;;;;;;;3.10;1.40;;;;;;;35.43;20.55;99253.34;10424301;28;20037;-62
2023/07/11 15:24:18;;;;;;;3.97;1.80;;;;;;;35.36;20.90;99244.66;10417429;28;20069;-62
2023/07/11 15:29:20;;;;;;;2.85;1.38;;;;;;;35.06;20.92;99231.75;10425100;28;20639;-63
2023/07/11 15:34:27;;;;;;;2.70;1.40;;;;;;;35.09;20.76;99233.13;10415608;28;20253;-62
2023/07/11 15:39:29;;;;;;;6.10;2.15;;;;;;;35.15;20.53;99226.63;10422516;28;20634;-63
2023/07/11 15:44:37;;;;;;;3.53;1.50;;;;;;;35.09;20.96;99228.50;10419163;28;20045;-62
2023/07/11 15:49:39;;;;;;;3.90;1.70;;;;;;;35.13;20.87;99224.19;10425229;28;20083;-63
2023/07/11 15:54:41;;;;;;;2.80;1.60;;;;;;;35.13;20.97;99226.06;10414439;28;20079;-62
2023/07/11 15:59:43;;;;;;;3.10;1.45;;;;;;;35.14;21.09;99225.78;10423062;28;20230;-63
2023/07/11 16:04:45;;;;;;;4.28;1.70;;;;;;;34.82;21.10;99221.59;10417632;28;20199;-62
2023/07/11 16:09:48;;;;;;;2.60;1.25;;;;;;;34.43;21.56;99223.84;10424093;28;20632;-62
2023/07/11 16:14:50;;;;;;;2.60;1.50;;;;;;;34.36;21.52;99218.63;10418217;28;20123;-62
2023/07/11 16:19:53;;;;;;;3.55;1.67;;;;;;;34.51;21.57;99212.50;10422975;28;20044;-62
2023/07/11 16:24:55;;;;;;;2.65;1.60;;;;;;;34.48;21.30;99213.84;10416593;28;20044;-62
2023/07/11 16:29:57;;;;;;;2.97;1.50;;;;;;;34.52;21.47;99217.66;10420120;28;20045;-62
2023/07/11 16:35:00;;;;;;;6.07;1.65;;;;;;;34.31;21.92;99217.78;10419139;28;20045;-62
2023/07/11 16:40:02;;;;;;;3.25;1.80;;;;;;;34.09;22.04;99206.25;10412813;28;20057;-62
2023/07/11 16:45:12;;;;;;;4.50;1.50;;;;;;;34.04;21.83;99206.22;10415694;28;20729;-62
2023/07/11 16:50:21;;;;;;;2.63;1.52;;;;;;;33.72;22.36;99198.91;10420823;28;20072;-62
2023/07/11 16:55:24;;;;;;;4.50;1.80;;;;;;;33.58;22.50;99194.97;10415206;28;20327;-62
2023/07/11 17:00:26;;;;;;;2.90;1.40;;;;;;;33.57;22.76;99187.13;10421429;28;20168;-62
2023/07/11 17:05:29;;;;;;;2.78;1.58;;;;;;;33.55;23.29;99189.28;10416921;28;20045;-63
2023/07/11 17:10:32;;;;;;;3.72;1.48;;;;;;;33.39;23.46;99184.75;10419286;28;20512;-62
2023/07/11 17:15:34;;;;;;;3.08;1.40;;;;;;;33.21;23.69;99180.50;10415920;28;20063;-62
2023/07/11 17:20:36;;;;;;;3.50;1.80;;;;;;;32.96;24.32;99180.22;10420088;28;20037;-62
2023/07/11 17:25:39;;;;;;;8.10;2.38;;;;;;;32.43;26.05;99191.75;10413512;28;20106;-62
2023/07/11 17:30:42;;;;;;;4.80;1.80;;;;;;;31.16;31.26;99184.50;10417810;28;20041;-62
2023/07/11 17:35:53;;;;;;;3.30;1.75;;;;;;;30.44;34.07;99184.09;10418551;28;20055;-62
2023/07/11 17:40:56;;;;;;;3.40;1.77;;;;;;;29.99;36.66;99185.00;10415164;28;20459;-62
2023/07/11 17:45:59;;;;;;;2.85;1.45;;;;;;;29.51;37.65;99215.59;10428984;28;20524;-62
2023/07/11 17:51:21;;;;;;;4.00;1.52;;;;;;;29.12;37.67;99250.31;10429882;28;20048;-62
2023/07/11 17:56:24;;;;;;;2.80;1.65;;;;;;;28.76;37.35;99268.13;10427944;28;20362;-62
2023/07/11 18:01:35;;;;;;;4.20;1.90;;;;;;;28.46;37.04;99236.81;10430184;28;20390;-62
2023/07/11 18:06:38;;;;;;;3.03;1.50;;;;;;;28.49;36.71;99196.81;10427574;28;20422;-62
2023/07/11 18:11:40;;;;;;;4.20;1.60;;;;;;;28.51;38.15;99153.53;10425244;28;20433;-62
2023/07/11 18:16:42;;;;;;;4.68;1.80;;;;;;;28.25;38.86;99055.16;10432511;28;20052;-62
2023/07/11 18:21:44;;;;;;;4.28;2.00;;;;;;;27.70;39.59;99045.44;10414116;28;20134;-62
2023/07/11 18:26:46;;;;;;;2.78;1.50;;;;;;;27.97;41.09;99053.00;10430616;28;20102;-61
2023/07/11 18:31:48;;;;;;;4.00;1.67;;;;;;;27.27;42.04;99035.53;10427101;28;20057;-62
2023/07/11 18:36:50;;;;;;;6.20;1.75;;;;;;;27.09;42.87;99048.88;10430126;28;20394;-62
2023/07/11 18:41:52;;;;;;;3.72;1.70;;;;;;;27.15;43.02;99048.03;10432170;28;20048;-62
2023/07/11 18:46:54;;;;;;;3.78;1.60;;;;;;;26.83;43.46;99051.75;10429060;28;20045;-62
2023/07/11 18:51:56;;;;;;;3.40;1.67;;;;;;;26.66;43.93;99031.84;10427277;28;20052;-61
2023/07/11 18:56:59;;;;;;;3.85;1.70;;;;;;;26.33;44.92;99077.56;10427545;28;20055;-62
2023/07/11 19:02:01;;;;;;;4.00;1.63;;;;;;;26.30;45.38;99087.91;10427467;28;20412;-61
2023/07/11 19:07:07;;;;;;;3.35;1.80;;;;;;;26.08;46.06;99086.56;10425424;28;20175;-61
2023/07/11 19:12:28;;;;;;;3.30;1.75;;;;;;;26.06;47.83;99081.38;10427984;28;20498;-62
2023/07/11 19:17:37;;;;;;;4.45;2.13;;;;;;;25.85;46.52;99069.03;10425092;28;20049;-61
2023/07/11 19:22:39;;;;;;;2.90;1.55;;;;;;;25.94;46.88;99101.78;10424414;28;20139;-62
2023/07/11 19:27:43;;;;;;;3.72;1.60;;;;;;;26.04;47.15;99109.44;10426813;28;20695;-61
2023/07/11 19:32:45;;;;;;;2.67;1.50;;;;;;;25.90;47.50;99104.06;10425388;28;20051;-62
2023/07/11 19:37:51;;;;;;;3.55;2.05;;;;;;;25.66;48.70;99088.66;10425087;28;20052;-60
2023/07/11 19:42:54;;;;;;;3.85;1.90;;;;;;;25.65;48.37;99070.94;10426643;28;20056;-60
2023/07/11 19:47:57;;;;;;;2.70;1.58;;;;;;;25.33;48.77;99071.78;10427491;28;20077;-60
2023/07/11 19:53:00;;;;;;;4.10;1.77;;;;;;;25.12;49.62;99085.38;10441072;28;20056;-60
2023/07/11 19:58:04;;;;;;;4.63;2.22;;;;;;;25.06;50.23;99087.00;10426491;28;20145;-60
2023/07/11 20:03:06;;;;;;;3.53;1.70;;;;;;;24.89;50.51;99088.44;10428403;28;20505;-60
2023/07/11 20:08:21;;;;;;;5.00;2.42;;;;;;;24.96;51.74;99107.16;10423499;28;20049;-60
2023/07/11 20:13:25;;;;;;;3.78;1.70;;;;;;;24.82;50.86;99094.78;10425063;28;20080;-60
2023/07/11 20:18:29;;;;;;;2.95;1.60;;;;;;;24.69;51.64;99110.78;10426695;28;20169;-60
2023/07/11 20:23:32;;;;;;;3.60;2.00;;;;;;;24.73;51.63;99122.75;10425647;28;20049;-60
2023/07/11 20:28:34;;;;;;;3.45;1.85;;;;;;;24.87;51.38;99116.41;10425182;28;20053;-60
2023/07/11 20:33:36;;;;;;;4.07;1.80;;;;;;;24.74;51.74;99117.19;10427201;28;20045;-60
2023/07/11 20:38:38;;;;;;;4.22;2.08;;;;;;;24.76;51.83;99122.34;10422064;28;20424;-60
2023/07/11 20:43:41;;;;;;;4.47;1.92;;;;;;;24.78;51.80;99133.66;10422614;28;20051;-60
2023/07/11 20:48:43;;;;;;;3.38;1.77;;;;;;;24.63;52.13;99138.31;10427222;28;20280;-60
2023/07/11 20:53:46;;;;;;;3.33;1.80;;;;;;;24.41;52.59;99136.78;10422917;28;20044;-60
2023/07/11 20:58:50;;;;;;;3.65;1.58;;;;;;;24.65;52.40;99144.28;10426417;28;20053;-60
2023/07/11 21:03:52;;;;;;;4.18;1.88;;;;;;;24.79;52.08;99138.81;10424524;28;20415;-60
2023/07/11 21:08:54;;;;;;;4.07;1.80;;;;;;;24.83;52.20;99139.22;10419222;28;20072;-60
2023/07/11 21:13:56;;;;;;;3.28;1.95;;;;;;;24.58;52.84;99130.91;10422907;28;20044;-60
2023/07/11 21:18:59;;;;;;;3.50;2.00;;;;;;;24.49;53.15;99131.28;10425337;28;20405;-60
2023/07/11 21:24:02;;;;;;;4.13;2.00;;;;;;;24.23;53.42;99139.97;10429874;28;20172;-60
2023/07/11 21:29:04;;;;;;;4.63;1.80;;;;;;;24.22;53.51;99143.69;10430860;28;20037;-60
2023/07/11 21:34:07;;;;;;;3.53;2.00;;;;;;;24.34;53.31;99143.94;10429590;28;20049;-60
2023/07/11 21:39:12;;;;;;;4.10;2.13;;;;;;;24.17;54.19;99138.09;10428252;28;20049;-60
2023/07/11 21:44:14;;;;;;;3.63;1.90;;;;;;;24.24;53.79;99155.00;10430210;28;20045;-60
2023/07/11 21:49:16;;;;;;;3.53;1.90;;;;;;;24.18;54.00;99172.63;10427419;28;20335;-60
2023/07/11 21:54:18;;;;;;;4.00;1.80;;;;;;;23.89;54.76;99167.50;10430260;28;20505;-60
2023/07/11 21:59:21;;;;;;;4.68;2.55;;;;;;;23.94;54.76;99183.75;10431156;28;20651;-60
2023/07/11 22:04:23;;;;;;;5.63;2.03;;;;;;;23.76;55.02;99175.41;10428080;28;20041;-60
2023/07/11 22:09:25;;;;;;;4.22;1.90;;;;;;;23.84;55.25;99207.31;10431024;28;20044;-59
2023/07/11 22:14:27;;;;;;;4.28;2.05;;;;;;;23.96;55.00;99195.06;10430157;28;20051;-60
2023/07/11 22:19:29;;;;;;;3.20;1.90;;;;;;;23.84;55.73;99193.16;10428733;28;20084;-60
2023/07/11 22:24:31;;;;;;;6.95;2.45;;;;;;;23.67;56.33;99184.59;10429613;28;20568;-60
2023/07/11 22:29:33;;;;;;;5.32;1.70;;;;;;;23.74;56.12;99176.59;10429469;28;20040;-60
2023/07/11 22:34:35;;;;;;;11.23;2.35;;;;;;;23.58;56.48;99169.72;10429881;28;20047;-60
2023/07/11 22:39:37;;;;;;;4.10;1.77;;;;;;;23.36;56.88;99158.22;10430839;28;20049;-60
2023/07/11 22:44:39;;;;;;;4.55;1.90;;;;;;;23.54;56.85;99164.94;10428387;28;20131;-60
2023/07/11 22:49:41;;;;;;;4.20;1.85;;;;;;;23.75;56.47;99187.13;10431584;28;20138;-60
2023/07/11 22:54:43;;;;;;;5.10;1.80;;;;;;;23.47;57.01;99215.63;10428017;28;20041;-60
2023/07/11 22:59:45;;;;;;;3.90;2.05;;;;;;;23.39;57.38;99231.75;10430441;28;20131;-60
2023/07/11 23:04:47;;;;;;;3.25;1.85;;;;;;;23.36;57.35;99229.44;10429606;28;20084;-60
2023/07/11 23:09:49;;;;;;;3.70;1.75;;;;;;;23.62;54.70;99228.88;10431221;28;20053;-60
2023/07/11 23:14:51;;;;;;;5.95;2.20;;;;;;;23.82;52.18;99230.69;10429122;28;20072;-60
2023/07/11 23:19:53;;;;;;;3.15;1.70;;;;;;;23.95;52.18;99251.34;10428956;28;20140;-60
2023/07/11 23:24:55;;;;;;;3.42;1.70;;;;;;;23.89;51.85;99268.16;10423911;28;20041;-60
2023/07/11 23:29:57;;;;;;;3.33;1.80;;;;;;;23.76;52.07;99263.50;10429542;28;20053;-60
2023/07/11 23:34:59;;;;;;;4.30;2.22;;;;;;;23.69;52.09;99261.81;10428479;28;20045;-60
2023/07/11 23:40:03;;;;;;;2.65;1.55;;;;;;;23.52;52.41;99255.06;10427458;28;20493;-60